Time;durP1;ratioP1;P1;durP2;ratioP2;P2;SDS_P1;SDS_P2;PMS_P1;PMS_P2;Temp;Humidity;BMP_temperature;BMP_pressure;BME280_temperature;BME280_humidity;BME280_pressure;Samples;Min_cycle;Max_cycle;Signal;HPM_P1;HPM_P2
2023/11/03 00:01:53;;;;;;;4.50;1.45;;;9.30;74.00;;;;;;20347002;29;20078;-41
2023/11/03 00:11:54;;;;;;;2.75;1.20;;;9.20;73.60;;;;;;20337991;29;20056;-41
2023/11/03 00:21:55;;;;;;;4.13;1.15;;;9.20;76.80;;;;;;20337786;29;20047;-41
2023/11/03 00:31:56;;;;;;;3.55;0.70;;;9.20;65.90;;;;;;20339061;29;20570;-42
2023/11/03 00:41:56;;;;;;;3.33;0.80;;;9.20;71.90;;;;;;20347323;29;20335;-41
2023/11/03 00:51:57;;;;;;;4.38;0.90;;;9.10;81.00;;;;;;20360414;29;20573;-41
2023/11/03 01:01:58;;;;;;;4.43;1.15;;;9.20;96.40;;;;;;20355338;29;20055;-41
2023/11/03 01:11:58;;;;;;;6.10;1.20;;;9.20;99.90;;;;;;20353461;29;20496;-42
2023/11/03 01:21:59;;;;;;;3.28;1.10;;;9.20;99.90;;;;;;20348988;29;20578;-41
2023/11/03 01:32:02;;;;;;;4.97;1.00;;;9.20;99.90;;;;;;20346559;29;20044;-42
2023/11/03 01:42:03;;;;;;;5.75;1.10;;;9.20;99.90;;;;;;20345083;29;20063;-42
2023/11/03 01:52:05;;;;;;;6.70;1.25;;;9.30;99.90;;;;;;20345548;29;20147;-41
2023/11/03 02:02:06;;;;;;;4.53;1.42;;;9.30;99.90;;;;;;20346555;29;20688;-42
2023/11/03 02:12:08;;;;;;;6.20;1.25;;;9.30;99.90;;;;;;20344950;29;20415;-41
2023/11/03 02:22:09;;;;;;;3.28;1.48;;;9.40;99.90;;;;;;20343239;29;20055;-42
2023/11/03 02:32:10;;;;;;;5.43;1.42;;;9.40;99.90;;;;;;20336687;29;20514;-42
2023/11/03 02:42:10;;;;;;;7.67;1.40;;;9.40;99.90;;;;;;20344231;29;20044;-42
2023/11/03 02:52:11;;;;;;;7.38;1.27;;;9.40;99.90;;;;;;20340205;29;20468;-42
2023/11/03 03:02:11;;;;;;;4.70;0.95;;;9.40;99.90;;;;;;20327243;29;20055;-43
2023/11/03 03:12:12;;;;;;;7.20;1.00;;;9.30;99.90;;;;;;20323986;29;20044;-43
2023/11/03 03:22:12;;;;;;;5.00;1.20;;;9.40;99.90;;;;;;20342439;29;20043;-42
2023/11/03 03:32:13;;;;;;;7.07;1.03;;;9.30;99.90;;;;;;20336387;29;20075;-43
2023/11/03 03:42:14;;;;;;;4.10;0.60;;;9.20;99.90;;;;;;20327482;29;20529;-42
2023/11/03 03:52:14;;;;;;;4.30;0.63;;;9.10;99.90;;;;;;20337834;29;20051;-43
2023/11/03 04:02:15;;;;;;;3.78;0.47;;;9.10;99.90;;;;;;20342790;29;20059;-43
2023/11/03 04:12:16;;;;;;;5.28;0.60;;;9.00;99.90;;;;;;20337093;29;20055;-42
2023/11/03 04:22:16;;;;;;;8.47;1.10;;;9.10;99.90;;;;;;20344058;29;20044;-42
2023/11/03 04:32:17;;;;;;;8.27;0.90;;;9.10;99.90;;;;;;20354912;29;20472;-42
2023/11/03 04:42:18;;;;;;;7.00;0.88;;;9.00;99.90;;;;;;20354531;29;20530;-41
2023/11/03 04:52:19;;;;;;;5.17;0.70;;;9.10;99.90;;;;;;20341642;29;20047;-42
2023/11/03 05:02:19;;;;;;;6.45;0.80;;;9.20;99.90;;;;;;20347462;29;20480;-42
2023/11/03 05:12:20;;;;;;;7.90;0.98;;;9.20;99.90;;;;;;20339671;29;20452;-42
2023/11/03 05:22:20;;;;;;;7.70;1.38;;;9.20;99.90;;;;;;20350963;29;20186;-42
2023/11/03 05:32:21;;;;;;;7.07;0.90;;;9.20;99.90;;;;;;20333789;29;20039;-44
2023/11/03 05:42:21;;;;;;;8.57;1.15;;;9.20;99.90;;;;;;20339581;29;20586;-42
2023/11/03 05:52:22;;;;;;;8.15;1.27;;;9.20;99.90;;;;;;20347242;29;20604;-43
2023/11/03 06:02:23;;;;;;;7.78;1.48;;;9.10;99.90;;;;;;20349165;29;20058;-44
2023/11/03 06:12:23;;;;;;;9.38;1.95;;;9.10;99.90;;;;;;20352136;29;20134;-44
2023/11/03 06:22:24;;;;;;;10.88;2.05;;;9.20;99.90;;;;;;20347247;29;20504;-43
2023/11/03 06:32:25;;;;;;;8.65;1.48;;;9.20;99.90;;;;;;20347297;29;20066;-44
2023/11/03 06:42:25;;;;;;;12.90;2.35;;;9.20;99.90;;;;;;20346078;29;20307;-43
2023/11/03 06:52:26;;;;;;;14.48;3.88;;;9.30;99.90;;;;;;20345752;29;20051;-42
2023/11/03 07:02:27;;;;;;;14.88;3.63;;;9.30;99.90;;;;;;20348551;29;20048;-42
2023/11/03 07:12:27;;;;;;;17.17;3.38;;;9.30;99.90;;;;;;20345588;29;20067;-44
2023/11/03 07:22:29;;;;;;;16.70;3.60;;;9.30;99.90;;;;;;20347680;29;20208;-44
2023/11/03 07:32:31;;;;;;;17.10;5.70;;;9.30;99.90;;;;;;20341777;29;20547;-43
2023/11/03 07:42:32;;;;;;;11.93;2.53;;;9.30;99.90;;;;;;20334964;29;20043;-43
2023/11/03 07:52:32;;;;;;;11.93;3.33;;;9.30;99.90;;;;;;20344416;29;20055;-43
2023/11/03 08:02:33;;;;;;;17.38;3.45;;;9.40;99.90;;;;;;20336449;29;20063;-44
2023/11/03 08:12:34;;;;;;;11.55;2.67;;;9.40;99.90;;;;;;20336111;29;20476;-44
2023/11/03 08:22:35;;;;;;;15.27;2.15;;;9.30;99.90;;;;;;20348783;29;20437;-43
2023/11/03 08:32:36;;;;;;;11.02;2.08;;;9.50;99.90;;;;;;20347519;29;20040;-42
2023/11/03 08:42:37;;;;;;;16.27;2.25;;;9.50;99.90;;;;;;20335390;29;20201;-42
2023/11/03 08:52:40;;;;;;;13.70;3.05;;;9.70;99.90;;;;;;20344604;29;20058;-43
2023/11/03 09:02:44;;;;;;;14.27;2.33;;;9.80;99.90;;;;;;20342196;29;20047;-43
2023/11/03 09:12:46;;;;;;;15.07;2.25;;;9.90;99.90;;;;;;20353380;29;20043;-43
2023/11/03 09:22:47;;;;;;;12.25;1.83;;;10.10;99.90;;;;;;20350496;29;20051;-43
2023/11/03 09:32:48;;;;;;;11.90;2.13;;;10.10;99.90;;;;;;20345665;29;20262;-42
2023/11/03 09:42:49;;;;;;;10.65;1.73;;;10.40;99.90;;;;;;20341441;29;20076;-41
2023/11/03 09:52:54;;;;;;;12.13;2.90;;;10.40;99.90;;;;;;20345766;29;20142;-41
2023/11/03 10:02:55;;;;;;;11.07;2.28;;;10.40;99.90;;;;;;20337523;29;20071;-42
2023/11/03 10:12:57;;;;;;;13.98;1.85;;;10.50;99.90;;;;;;20342698;29;20587;-42
2023/11/03 10:22:58;;;;;;;15.77;2.83;;;10.70;99.90;;;;;;20342486;29;20132;-42
2023/11/03 10:32:58;;;;;;;16.75;2.90;;;10.70;99.90;;;;;;20332282;29;20181;-42
2023/11/03 10:43:04;;;;;;;17.63;4.40;;;10.80;95.90;;;;;;20384344;29;20296;-41
2023/11/03 10:53:32;;;;;;;9.90;2.53;;;11.00;95.40;;;;;;20384024;29;20090;-42
2023/11/03 11:03:52;;;;;;;15.38;2.75;;;11.20;72.70;;;;;;20385158;29;20078;-41
2023/11/03 11:13:53;;;;;;;9.60;2.38;;;11.10;34.40;;;;;;20385204;29;20051;-41
2023/11/03 11:23:55;;;;;;;11.60;2.03;;;11.30;27.10;;;;;;20382687;29;20055;-41
2023/11/03 11:34:07;;;;;;;12.95;2.13;;;11.50;32.80;;;;;;20378395;29;20436;-41
2023/11/03 11:44:10;;;;;;;11.43;2.63;;;12.10;28.10;;;;;;20380988;29;20048;-41
2023/11/03 11:54:10;;;;;;;10.25;2.58;;;12.60;1.00;;;;;;20378794;29;20053;-42
2023/11/03 12:04:11;;;;;;;10.73;2.67;;;12.90;1.00;;;;;;20373711;29;20094;-42
2023/11/03 12:14:12;;;;;;;9.33;1.37;;;13.10;1.00;;;;;;20380677;29;20058;-41
2023/11/03 12:24:12;;;;;;;9.90;1.80;;;13.00;1.00;;;;;;20380167;29;20047;-41
2023/11/03 12:34:15;;;;;;;10.32;1.73;;;12.80;1.00;;;;;;20376355;29;20063;-41
2023/11/03 12:44:16;;;;;;;14.02;1.58;;;13.00;1.00;;;;;;20391741;29;20071;-41
2023/11/03 12:54:18;;;;;;;8.05;2.08;;;13.20;1.00;;;;;;20391403;29;20052;-41
2023/11/03 13:04:19;;;;;;;7.47;1.30;;;12.90;1.00;;;;;;20390032;29;20072;-41
2023/11/03 13:14:19;;;;;;;6.05;1.55;;;12.70;1.00;;;;;;20389468;29;20060;-41
2023/11/03 13:24:20;;;;;;;12.82;1.50;;;12.60;1.00;;;;;;20390664;29;20048;-41
2023/11/03 13:34:20;;;;;;;6.70;1.40;;;12.40;1.00;;;;;;20385770;29;20058;-41
2023/11/03 13:44:21;;;;;;;9.55;1.10;;;12.30;1.00;;;;;;20389126;29;20106;-40
2023/11/03 13:54:25;;;;;;;9.45;1.30;;;12.10;1.00;;;;;;20384969;29;20044;-41
2023/11/03 14:04:26;;;;;;;7.82;1.13;;;12.10;1.00;;;;;;20386821;29;20039;-40
2023/11/03 14:14:27;;;;;;;4.82;1.10;;;12.20;1.00;;;;;;20382592;29;20040;-41
2023/11/03 14:24:28;;;;;;;5.75;1.10;;;12.20;1.00;;;;;;20382227;29;20044;-40
2023/11/03 14:34:28;;;;;;;8.40;1.47;;;12.30;1.00;;;;;;20382051;29;20071;-40
2023/11/03 14:44:33;;;;;;;6.63;1.10;;;12.60;1.00;;;;;;20385612;29;20471;-41
2023/11/03 14:54:34;;;;;;;7.15;1.35;;;12.60;1.00;;;;;;20382686;29;20047;-40
2023/11/03 15:04:35;;;;;;;8.35;1.02;;;12.40;1.00;;;;;;20380159;29;20047;-40
2023/11/03 15:14:36;;;;;;;8.57;1.00;;;12.20;1.00;;;;;;20376542;29;20483;-41
2023/11/03 15:24:36;;;;;;;11.82;1.20;;;12.10;1.00;;;;;;20380627;29;20050;-40
2023/11/03 15:34:37;;;;;;;7.38;0.93;;;12.00;1.00;;;;;;20376183;29;20566;-41
2023/11/03 15:44:38;;;;;;;5.65;1.33;;;11.90;1.00;;;;;;20374775;29;20460;-41
2023/11/03 15:54:39;;;;;;;3.88;0.93;;;11.70;1.00;;;;;;20375136;29;20512;-40
2023/11/03 16:04:40;;;;;;;9.20;1.40;;;11.70;1.00;;;;;;20380032;29;20503;-41
2023/11/03 16:14:40;;;;;;;5.70;1.10;;;11.40;1.00;;;;;;20386135;29;20048;-41
2023/11/03 16:24:41;;;;;;;5.38;1.10;;;11.40;1.00;;;;;;20393548;29;20051;-40
2023/11/03 16:34:41;;;;;;;8.35;1.30;;;11.30;1.00;;;;;;20394597;29;20058;-40
2023/11/03 16:44:42;;;;;;;6.20;1.20;;;11.20;1.00;;;;;;20395254;29;20058;-40
2023/11/03 16:54:43;;;;;;;9.20;1.75;;;11.20;1.00;;;;;;20391933;29;20204;-41
2023/11/03 17:04:45;;;;;;;7.55;2.90;;;11.20;1.00;;;;;;20392613;29;20044;-40
2023/11/03 17:14:45;;;;;;;9.70;3.42;;;11.10;1.00;;;;;;20387960;29;20073;-41
2023/11/03 17:24:46;;;;;;;6.75;1.70;;;11.00;1.00;;;;;;20392162;28;20051;-40
2023/11/03 17:34:48;;;;;;;4.27;2.13;;;11.00;1.00;;;;;;20391745;29;20039;-40
2023/11/03 17:44:49;;;;;;;4.40;1.40;;;10.90;1.00;;;;;;20389730;29;20099;-40
2023/11/03 17:54:50;;;;;;;5.78;1.42;;;10.80;1.00;;;;;;20381033;29;20225;-40
2023/11/03 18:04:50;;;;;;;2.97;0.95;;;10.80;1.00;;;;;;20384219;29;20060;-41
2023/11/03 18:14:51;;;;;;;5.57;1.92;;;10.70;1.00;;;;;;20368227;29;20056;-40
2023/11/03 18:24:54;;;;;;;3.28;1.40;;;10.70;1.00;;;;;;20384639;29;20063;-40
2023/11/03 18:34:54;;;;;;;4.90;1.67;;;10.60;1.00;;;;;;20385735;29;20043;-41
2023/11/03 18:44:55;;;;;;;2.33;1.08;;;10.50;1.00;;;;;;20387598;29;20130;-40
2023/11/03 18:54:56;;;;;;;3.28;1.17;;;10.40;1.00;;;;;;20385550;29;20232;-41
2023/11/03 19:04:56;;;;;;;6.13;0.98;;;10.30;1.00;;;;;;20387238;29;20492;-41
2023/11/03 19:14:57;;;;;;;2.45;0.80;;;10.20;1.00;;;;;;20387818;29;20115;-41
2023/11/03 19:24:57;;;;;;;2.85;0.98;;;10.20;1.00;;;;;;20384467;29;20654;-41
2023/11/03 19:35:00;;;;;;;3.60;1.10;;;10.10;1.00;;;;;;20383296;29;20043;-41
2023/11/03 19:45:00;;;;;;;4.50;0.93;;;10.00;1.00;;;;;;20384227;29;20212;-41
2023/11/03 19:55:01;;;;;;;2.55;1.23;;;10.00;1.00;;;;;;20381876;29;20518;-41
2023/11/03 20:05:04;;;;;;;4.38;1.58;;;9.90;1.00;;;;;;20379380;29;20056;-41
2023/11/03 20:15:06;;;;;;;3.70;1.50;;;9.70;1.00;;;;;;20381982;29;20043;-41
2023/11/03 20:25:06;;;;;;;3.08;1.80;;;9.60;1.00;;;;;;20380529;29;20086;-41
2023/11/03 20:35:07;;;;;;;4.97;2.20;;;9.50;1.00;;;;;;20376444;29;20539;-42
2023/11/03 20:45:10;;;;;;;4.57;1.80;;;9.50;1.00;;;;;;20380837;29;20475;-41
2023/11/03 20:55:12;;;;;;;4.72;2.05;;;9.40;1.00;;;;;;20381401;29;20051;-41
2023/11/03 21:05:13;;;;;;;6.63;2.20;;;9.40;1.00;;;;;;20391177;29;20047;-41
2023/11/03 21:15:13;;;;;;;5.20;2.30;;;9.30;1.00;;;;;;20392405;29;20130;-41
2023/11/03 21:25:16;;;;;;;4.75;1.80;;;9.20;1.00;;;;;;20392895;29;20059;-41
2023/11/03 21:35:16;;;;;;;5.75;2.33;;;9.20;1.00;;;;;;20388403;29;20324;-41
2023/11/03 21:45:17;;;;;;;4.55;1.80;;;9.10;1.00;;;;;;20390142;29;20446;-41
2023/11/03 21:55:19;;;;;;;3.53;2.20;;;9.10;1.00;;;;;;20390620;29;20055;-41
2023/11/03 22:05:19;;;;;;;2.47;1.67;;;9.00;1.00;;;;;;20390703;29;20300;-41
2023/11/03 22:15:20;;;;;;;5.25;1.80;;;9.00;1.00;;;;;;20387291;29;20053;-41
2023/11/03 22:25:20;;;;;;;3.38;1.75;;;8.90;1.00;;;;;;20386518;29;20056;-41
2023/11/03 22:35:21;;;;;;;6.55;2.20;;;8.80;1.00;;;;;;20388535;29;20043;-41
2023/11/03 22:45:22;;;;;;;4.07;2.28;;;8.90;1.00;;;;;;20384435;29;20079;-41
2023/11/03 22:55:22;;;;;;;4.53;2.25;;;8.80;1.00;;;;;;20386967;29;20523;-41
2023/11/03 23:05:25;;;;;;;5.75;1.92;;;8.80;1.00;;;;;;20364796;29;20146;-41
2023/11/03 23:15:26;;;;;;;4.57;2.03;;;8.80;1.00;;;;;;20384344;29;20067;-41
2023/11/03 23:25:27;;;;;;;3.38;1.70;;;8.80;1.00;;;;;;20384291;29;20047;-41
2023/11/03 23:35:27;;;;;;;5.38;2.03;;;8.70;1.00;;;;;;20382844;29;20117;-41
2023/11/03 23:45:28;;;;;;;3.88;1.90;;;8.80;1.00;;;;;;20386490;29;20071;-41
2023/11/03 23:55:29;;;;;;;3.72;1.63;;;8.90;1.00;;;;;;20385212;29;20084;-41
